sensor_id;sensor_type;location;lat;lon;timestamp;temperature;humidity
57282;DHT22;43129;52.628;10.098;2023-07-13T00:00:04;17.80;99.90
57282;DHT22;43129;52.628;10.098;2023-07-13T00:02:44;17.80;99.90
57282;DHT22;43129;52.628;10.098;2023-07-13T00:05:14;17.70;99.90
57282;DHT22;43129;52.628;10.098;2023-07-13T00:07:43;17.70;99.90
57282;DHT22;43129;52.628;10.098;2023-07-13T00:10:08;17.70;99.90
57282;DHT22;43129;52.628;10.098;2023-07-13T00:12:39;17.60;99.90
57282;DHT22;43129;52.628;10.098;2023-07-13T00:15:20;17.70;99.90
57282;DHT22;43129;52.628;10.098;2023-07-13T00:17:50;17.60;99.90
57282;DHT22;43129;52.628;10.098;2023-07-13T00:20:16;17.60;99.90
57282;DHT22;43129;52.628;10.098;2023-07-13T00:22:47;17.50;99.90
57282;DHT22;43129;52.628;10.098;2023-07-13T00:25:17;17.60;99.90
57282;DHT22;43129;52.628;10.098;2023-07-13T00:27:43;17.50;99.90
57282;DHT22;43129;52.628;10.098;2023-07-13T00:30:10;17.50;99.90
57282;DHT22;43129;52.628;10.098;2023-07-13T00:32:37;17.50;99.90
57282;DHT22;43129;52.628;10.098;2023-07-13T00:35:03;17.50;99.90
57282;DHT22;43129;52.628;10.098;2023-07-13T00:37:31;17.50;99.90
57282;DHT22;43129;52.628;10.098;2023-07-13T00:39:57;17.40;99.90
57282;DHT22;43129;52.628;10.098;2023-07-13T00:42:24;17.40;99.90
57282;DHT22;43129;52.628;10.098;2023-07-13T00:47:36;17.40;99.90
57282;DHT22;43129;52.628;10.098;2023-07-13T00:50:02;17.30;99.90
57282;DHT22;43129;52.628;10.098;2023-07-13T00:52:29;17.30;99.90
57282;DHT22;43129;52.628;10.098;2023-07-13T00:54:59;17.20;99.90
57282;DHT22;43129;52.628;10.098;2023-07-13T00:57:25;17.30;99.90
57282;DHT22;43129;52.628;10.098;2023-07-13T00:59:58;17.20;99.90
57282;DHT22;43129;52.628;10.098;2023-07-13T01:02:25;17.10;99.90
57282;DHT22;43129;52.628;10.098;2023-07-13T01:04:51;17.20;99.90
57282;DHT22;43129;52.628;10.098;2023-07-13T01:07:18;17.20;99.90
57282;DHT22;43129;52.628;10.098;2023-07-13T01:09:44;17.20;99.90
57282;DHT22;43129;52.628;10.098;2023-07-13T01:12:10;17.20;99.90
57282;DHT22;43129;52.628;10.098;2023-07-13T01:14:36;17.20;99.90
57282;DHT22;43129;52.628;10.098;2023-07-13T01:17:04;17.20;99.90
57282;DHT22;43129;52.628;10.098;2023-07-13T01:19:41;17.20;99.90
57282;DHT22;43129;52.628;10.098;2023-07-13T01:22:13;17.30;99.90
57282;DHT22;43129;52.628;10.098;2023-07-13T01:24:44;17.20;99.90
57282;DHT22;43129;52.628;10.098;2023-07-13T01:27:12;17.20;99.90
57282;DHT22;43129;52.628;10.098;2023-07-13T01:29:39;17.20;99.90
57282;DHT22;43129;52.628;10.098;2023-07-13T01:32:09;17.30;99.90
57282;DHT22;43129;52.628;10.098;2023-07-13T01:34:36;17.30;99.90
57282;DHT22;43129;52.628;10.098;2023-07-13T01:37:03;17.20;99.90
57282;DHT22;43129;52.628;10.098;2023-07-13T01:39:28;17.20;99.90
57282;DHT22;43129;52.628;10.098;2023-07-13T01:41:54;17.30;99.90
57282;DHT22;43129;52.628;10.098;2023-07-13T01:44:22;17.20;99.90
57282;DHT22;43129;52.628;10.098;2023-07-13T01:46:47;17.20;99.90
57282;DHT22;43129;52.628;10.098;2023-07-13T01:49:13;17.20;99.90
57282;DHT22;43129;52.628;10.098;2023-07-13T01:51:38;17.30;99.90
57282;DHT22;43129;52.628;10.098;2023-07-13T01:54:04;17.20;99.90
57282;DHT22;43129;52.628;10.098;2023-07-13T01:56:32;17.20;99.90
57282;DHT22;43129;52.628;10.098;2023-07-13T01:59:00;17.20;99.90
57282;DHT22;43129;52.628;10.098;2023-07-13T02:01:31;17.10;99.90
57282;DHT22;43129;52.628;10.098;2023-07-13T02:03:56;17.00;99.90
57282;DHT22;43129;52.628;10.098;2023-07-13T02:06:25;16.90;99.90
57282;DHT22;43129;52.628;10.098;2023-07-13T02:08:50;16.90;99.90
57282;DHT22;43129;52.628;10.098;2023-07-13T02:11:16;16.90;99.90
57282;DHT22;43129;52.628;10.098;2023-07-13T02:13:42;16.80;99.90
57282;DHT22;43129;52.628;10.098;2023-07-13T02:16:08;16.90;99.90
57282;DHT22;43129;52.628;10.098;2023-07-13T02:18:39;16.80;99.90
57282;DHT22;43129;52.628;10.098;2023-07-13T02:21:07;16.80;99.90
57282;DHT22;43129;52.628;10.098;2023-07-13T02:23:32;16.80;99.90
57282;DHT22;43129;52.628;10.098;2023-07-13T02:26:00;16.80;99.90
57282;DHT22;43129;52.628;10.098;2023-07-13T02:28:28;16.80;99.90
57282;DHT22;43129;52.628;10.098;2023-07-13T02:30:53;16.70;99.90
57282;DHT22;43129;52.628;10.098;2023-07-13T02:33:19;16.70;99.90
57282;DHT22;43129;52.628;10.098;2023-07-13T02:35:45;16.70;99.90
57282;DHT22;43129;52.628;10.098;2023-07-13T02:38:13;16.80;99.90
57282;DHT22;43129;52.628;10.098;2023-07-13T02:40:41;16.70;99.90
57282;DHT22;43129;52.628;10.098;2023-07-13T02:43:09;16.70;99.90
57282;DHT22;43129;52.628;10.098;2023-07-13T02:45:35;16.60;99.90
57282;DHT22;43129;52.628;10.098;2023-07-13T02:48:02;16.60;99.90
57282;DHT22;43129;52.628;10.098;2023-07-13T02:50:28;16.50;99.90
57282;DHT22;43129;52.628;10.098;2023-07-13T02:52:54;16.50;99.90
57282;DHT22;43129;52.628;10.098;2023-07-13T02:55:19;16.50;99.90
57282;DHT22;43129;52.628;10.098;2023-07-13T02:57:47;16.50;99.90
57282;DHT22;43129;52.628;10.098;2023-07-13T03:00:13;16.40;99.90
57282;DHT22;43129;52.628;10.098;2023-07-13T03:02:38;16.40;99.90
57282;DHT22;43129;52.628;10.098;2023-07-13T03:05:08;16.40;99.90
57282;DHT22;43129;52.628;10.098;2023-07-13T03:07:38;16.40;99.90
57282;DHT22;43129;52.628;10.098;2023-07-13T03:10:07;16.30;99.90
57282;DHT22;43129;52.628;10.098;2023-07-13T03:12:33;16.30;99.90
57282;DHT22;43129;52.628;10.098;2023-07-13T03:15:01;16.30;99.90
57282;DHT22;43129;52.628;10.098;2023-07-13T03:17:27;16.30;99.90
57282;DHT22;43129;52.628;10.098;2023-07-13T03:19:54;16.30;99.90
57282;DHT22;43129;52.628;10.098;2023-07-13T03:22:20;16.30;99.90
57282;DHT22;43129;52.628;10.098;2023-07-13T03:24:48;16.30;99.90
57282;DHT22;43129;52.628;10.098;2023-07-13T03:27:17;16.20;99.90
57282;DHT22;43129;52.628;10.098;2023-07-13T03:29:43;16.20;99.90
57282;DHT22;43129;52.628;10.098;2023-07-13T03:32:11;16.20;99.90
57282;DHT22;43129;52.628;10.098;2023-07-13T03:34:37;16.20;99.90
57282;DHT22;43129;52.628;10.098;2023-07-13T03:37:05;16.20;99.90
57282;DHT22;43129;52.628;10.098;2023-07-13T03:39:33;16.20;99.90
57282;DHT22;43129;52.628;10.098;2023-07-13T03:42:01;16.20;99.90
57282;DHT22;43129;52.628;10.098;2023-07-13T03:44:26;16.30;99.90
57282;DHT22;43129;52.628;10.098;2023-07-13T03:46:52;16.30;99.90
57282;DHT22;43129;52.628;10.098;2023-07-13T03:49:20;16.40;99.90
57282;DHT22;43129;52.628;10.098;2023-07-13T03:51:45;16.40;99.90
57282;DHT22;43129;52.628;10.098;2023-07-13T03:54:11;16.40;99.90
57282;DHT22;43129;52.628;10.098;2023-07-13T03:56:39;16.50;99.90
57282;DHT22;43129;52.628;10.098;2023-07-13T03:59:05;16.50;99.90
57282;DHT22;43129;52.628;10.098;2023-07-13T04:01:33;16.50;99.90
57282;DHT22;43129;52.628;10.098;2023-07-13T04:03:59;16.50;99.90
57282;DHT22;43129;52.628;10.098;2023-07-13T04:06:29;16.50;99.90
57282;DHT22;43129;52.628;10.098;2023-07-13T04:08:59;16.50;99.90
57282;DHT22;43129;52.628;10.098;2023-07-13T04:11:27;16.60;99.90
57282;DHT22;43129;52.628;10.098;2023-07-13T04:13:56;16.50;99.90
57282;DHT22;43129;52.628;10.098;2023-07-13T04:16:22;16.60;99.90
57282;DHT22;43129;52.628;10.098;2023-07-13T04:18:51;16.70;99.90
57282;DHT22;43129;52.628;10.098;2023-07-13T04:21:20;16.70;99.90
57282;DHT22;43129;52.628;10.098;2023-07-13T04:23:46;16.80;99.90
57282;DHT22;43129;52.628;10.098;2023-07-13T04:26:14;16.80;99.90
57282;DHT22;43129;52.628;10.098;2023-07-13T04:28:42;16.90;99.90
57282;DHT22;43129;52.628;10.098;2023-07-13T04:31:08;17.00;99.90
57282;DHT22;43129;52.628;10.098;2023-07-13T04:33:36;17.10;99.90
57282;DHT22;43129;52.628;10.098;2023-07-13T04:36:02;17.10;99.90
57282;DHT22;43129;52.628;10.098;2023-07-13T04:38:30;17.20;99.90
57282;DHT22;43129;52.628;10.098;2023-07-13T04:40:59;17.10;99.90
57282;DHT22;43129;52.628;10.098;2023-07-13T04:43:28;17.20;99.90
57282;DHT22;43129;52.628;10.098;2023-07-13T04:45:54;17.20;99.90
57282;DHT22;43129;52.628;10.098;2023-07-13T04:48:21;17.20;99.70
57282;DHT22;43129;52.628;10.098;2023-07-13T04:50:54;17.20;99.60
57282;DHT22;43129;52.628;10.098;2023-07-13T04:53:20;17.30;99.90
57282;DHT22;43129;52.628;10.098;2023-07-13T04:55:46;17.30;99.60
57282;DHT22;43129;52.628;10.098;2023-07-13T04:58:12;17.20;99.50
57282;DHT22;43129;52.628;10.098;2023-07-13T05:00:39;17.20;99.40
57282;DHT22;43129;52.628;10.098;2023-07-13T05:03:05;17.20;99.50
57282;DHT22;43129;52.628;10.098;2023-07-13T05:05:31;17.20;99.40
57282;DHT22;43129;52.628;10.098;2023-07-13T05:08:00;17.30;99.10
57282;DHT22;43129;52.628;10.098;2023-07-13T05:10:28;17.40;99.00
57282;DHT22;43129;52.628;10.098;2023-07-13T05:12:54;17.60;98.90
57282;DHT22;43129;52.628;10.098;2023-07-13T05:15:21;17.50;98.70
57282;DHT22;43129;52.628;10.098;2023-07-13T05:17:50;17.50;98.70
57282;DHT22;43129;52.628;10.098;2023-07-13T05:20:19;17.50;98.70
57282;DHT22;43129;52.628;10.098;2023-07-13T05:22:49;17.60;98.70
57282;DHT22;43129;52.628;10.098;2023-07-13T05:25:15;17.60;98.40
57282;DHT22;43129;52.628;10.098;2023-07-13T05:27:41;17.60;98.60
57282;DHT22;43129;52.628;10.098;2023-07-13T05:30:07;17.50;98.70
57282;DHT22;43129;52.628;10.098;2023-07-13T05:32:36;17.50;98.90
57282;DHT22;43129;52.628;10.098;2023-07-13T05:35:02;17.50;98.90
57282;DHT22;43129;52.628;10.098;2023-07-13T05:37:30;17.60;98.80
57282;DHT22;43129;52.628;10.098;2023-07-13T05:39:56;17.60;98.90
57282;DHT22;43129;52.628;10.098;2023-07-13T05:42:21;17.80;98.70
57282;DHT22;43129;52.628;10.098;2023-07-13T05:44:47;17.80;98.20
57282;DHT22;43129;52.628;10.098;2023-07-13T05:47:12;17.70;98.00
57282;DHT22;43129;52.628;10.098;2023-07-13T05:49:41;17.80;98.00
57282;DHT22;43129;52.628;10.098;2023-07-13T05:52:06;17.80;97.70
57282;DHT22;43129;52.628;10.098;2023-07-13T05:54:35;17.80;97.80
57282;DHT22;43129;52.628;10.098;2023-07-13T05:57:00;17.90;97.60
57282;DHT22;43129;52.628;10.098;2023-07-13T05:59:26;17.90;97.50
57282;DHT22;43129;52.628;10.098;2023-07-13T06:01:54;18.10;97.50
57282;DHT22;43129;52.628;10.098;2023-07-13T06:04:22;18.20;96.90
57282;DHT22;43129;52.628;10.098;2023-07-13T06:06:47;18.20;96.60
57282;DHT22;43129;52.628;10.098;2023-07-13T06:09:13;18.30;96.40
57282;DHT22;43129;52.628;10.098;2023-07-13T06:11:39;18.40;96.20
57282;DHT22;43129;52.628;10.098;2023-07-13T06:14:07;18.50;96.10
57282;DHT22;43129;52.628;10.098;2023-07-13T06:16:32;18.70;95.80
57282;DHT22;43129;52.628;10.098;2023-07-13T06:18:58;18.70;95.60
57282;DHT22;43129;52.628;10.098;2023-07-13T06:21:24;18.80;95.10
57282;DHT22;43129;52.628;10.098;2023-07-13T06:23:52;18.80;94.60
57282;DHT22;43129;52.628;10.098;2023-07-13T06:26:25;18.80;94.50
57282;DHT22;43129;52.628;10.098;2023-07-13T06:28:50;18.80;94.60
57282;DHT22;43129;52.628;10.098;2023-07-13T06:31:16;18.80;94.70
57282;DHT22;43129;52.628;10.098;2023-07-13T06:33:42;18.90;94.20
57282;DHT22;43129;52.628;10.098;2023-07-13T06:36:09;19.00;94.20
57282;DHT22;43129;52.628;10.098;2023-07-13T06:38:35;19.00;93.60
57282;DHT22;43129;52.628;10.098;2023-07-13T06:41:00;19.10;93.00
57282;DHT22;43129;52.628;10.098;2023-07-13T06:43:28;19.20;92.70
57282;DHT22;43129;52.628;10.098;2023-07-13T06:45:55;19.20;92.80
57282;DHT22;43129;52.628;10.098;2023-07-13T06:48:23;19.40;92.50
57282;DHT22;43129;52.628;10.098;2023-07-13T06:50:51;19.50;91.80
57282;DHT22;43129;52.628;10.098;2023-07-13T06:53:19;19.50;91.80
57282;DHT22;43129;52.628;10.098;2023-07-13T06:55:45;19.50;91.80
57282;DHT22;43129;52.628;10.098;2023-07-13T06:58:14;19.50;91.40
57282;DHT22;43129;52.628;10.098;2023-07-13T07:00:40;19.50;91.40
57282;DHT22;43129;52.628;10.098;2023-07-13T07:03:06;19.50;91.30
57282;DHT22;43129;52.628;10.098;2023-07-13T07:05:34;19.50;91.50
57282;DHT22;43129;52.628;10.098;2023-07-13T07:08:05;19.70;91.50
57282;DHT22;43129;52.628;10.098;2023-07-13T07:10:31;20.00;90.40
57282;DHT22;43129;52.628;10.098;2023-07-13T07:12:57;20.00;89.40
57282;DHT22;43129;52.628;10.098;2023-07-13T07:15:22;20.00;89.10
57282;DHT22;43129;52.628;10.098;2023-07-13T07:17:48;20.00;89.60
57282;DHT22;43129;52.628;10.098;2023-07-13T07:20:17;19.80;89.20
57282;DHT22;43129;52.628;10.098;2023-07-13T07:22:42;19.80;88.50
57282;DHT22;43129;52.628;10.098;2023-07-13T07:25:08;19.70;88.00
57282;DHT22;43129;52.628;10.098;2023-07-13T07:27:33;19.70;87.90
57282;DHT22;43129;52.628;10.098;2023-07-13T07:30:00;19.60;87.70
57282;DHT22;43129;52.628;10.098;2023-07-13T07:32:29;19.70;87.20
57282;DHT22;43129;52.628;10.098;2023-07-13T07:34:57;19.60;88.10
57282;DHT22;43129;52.628;10.098;2023-07-13T07:37:22;20.10;87.50
57282;DHT22;43129;52.628;10.098;2023-07-13T07:39:48;20.40;85.00
57282;DHT22;43129;52.628;10.098;2023-07-13T07:42:14;20.80;83.00
57282;DHT22;43129;52.628;10.098;2023-07-13T07:44:40;21.10;80.80
57282;DHT22;43129;52.628;10.098;2023-07-13T07:47:06;21.20;78.50
57282;DHT22;43129;52.628;10.098;2023-07-13T07:49:32;21.10;77.60
57282;DHT22;43129;52.628;10.098;2023-07-13T07:51:58;21.10;77.30
57282;DHT22;43129;52.628;10.098;2023-07-13T07:54:24;21.20;77.30
57282;DHT22;43129;52.628;10.098;2023-07-13T07:56:54;21.00;76.40
57282;DHT22;43129;52.628;10.098;2023-07-13T07:59:22;20.90;77.50
57282;DHT22;43129;52.628;10.098;2023-07-13T08:01:47;21.50;75.70
57282;DHT22;43129;52.628;10.098;2023-07-13T08:04:17;21.70;73.40
57282;DHT22;43129;52.628;10.098;2023-07-13T08:06:44;21.50;75.00
57282;DHT22;43129;52.628;10.098;2023-07-13T08:09:10;21.50;76.00
57282;DHT22;43129;52.628;10.098;2023-07-13T08:11:36;21.70;74.80
57282;DHT22;43129;52.628;10.098;2023-07-13T08:14:01;21.80;72.60
57282;DHT22;43129;52.628;10.098;2023-07-13T08:16:30;22.20;71.00
57282;DHT22;43129;52.628;10.098;2023-07-13T08:18:58;22.80;68.10
57282;DHT22;43129;52.628;10.098;2023-07-13T08:21:25;22.50;67.10
57282;DHT22;43129;52.628;10.098;2023-07-13T08:23:51;22.40;67.00
57282;DHT22;43129;52.628;10.098;2023-07-13T08:26:17;22.50;66.80
57282;DHT22;43129;52.628;10.098;2023-07-13T08:28:45;22.50;67.20
57282;DHT22;43129;52.628;10.098;2023-07-13T08:31:10;22.20;66.30
57282;DHT22;43129;52.628;10.098;2023-07-13T08:33:36;21.60;69.90
57282;DHT22;43129;52.628;10.098;2023-07-13T08:36:03;21.20;71.70
57282;DHT22;43129;52.628;10.098;2023-07-13T08:38:32;21.30;71.90
57282;DHT22;43129;52.628;10.098;2023-07-13T08:41:09;21.20;72.30
57282;DHT22;43129;52.628;10.098;2023-07-13T08:43:36;21.40;71.60
57282;DHT22;43129;52.628;10.098;2023-07-13T08:48:55;21.90;70.00
57282;DHT22;43129;52.628;10.098;2023-07-13T08:51:47;22.50;69.40
57282;DHT22;43129;52.628;10.098;2023-07-13T08:57:18;23.00;65.40
57282;DHT22;43129;52.628;10.098;2023-07-13T08:59:47;23.10;64.20
57282;DHT22;43129;52.628;10.098;2023-07-13T09:02:54;23.00;64.10
57282;DHT22;43129;52.628;10.098;2023-07-13T09:05:33;22.60;65.20
57282;DHT22;43129;52.628;10.098;2023-07-13T09:11:00;22.00;69.30
57282;DHT22;43129;52.628;10.098;2023-07-13T09:13:40;21.90;69.50
57282;DHT22;43129;52.628;10.098;2023-07-13T09:16:12;21.50;70.90
57282;DHT22;43129;52.628;10.098;2023-07-13T09:18:42;21.50;71.60
57282;DHT22;43129;52.628;10.098;2023-07-13T09:21:13;21.50;72.50
57282;DHT22;43129;52.628;10.098;2023-07-13T09:23:43;21.40;72.20
57282;DHT22;43129;52.628;10.098;2023-07-13T09:26:18;21.40;73.10
57282;DHT22;43129;52.628;10.098;2023-07-13T09:28:59;21.40;73.90
57282;DHT22;43129;52.628;10.098;2023-07-13T09:31:41;21.50;73.00
57282;DHT22;43129;52.628;10.098;2023-07-13T09:34:10;22.60;71.30
57282;DHT22;43129;52.628;10.098;2023-07-13T09:36:36;23.40;65.10
57282;DHT22;43129;52.628;10.098;2023-07-13T09:41:59;23.70;62.00
57282;DHT22;43129;52.628;10.098;2023-07-13T09:44:34;23.50;63.40
57282;DHT22;43129;52.628;10.098;2023-07-13T09:47:00;23.00;63.60
57282;DHT22;43129;52.628;10.098;2023-07-13T09:49:29;22.60;65.80
57282;DHT22;43129;52.628;10.098;2023-07-13T09:52:00;22.70;65.00
57282;DHT22;43129;52.628;10.098;2023-07-13T09:54:27;22.90;63.70
57282;DHT22;43129;52.628;10.098;2023-07-13T09:56:58;22.90;64.90
57282;DHT22;43129;52.628;10.098;2023-07-13T09:59:35;23.10;65.60
57282;DHT22;43129;52.628;10.098;2023-07-13T10:02:02;22.90;65.80
57282;DHT22;43129;52.628;10.098;2023-07-13T10:04:33;23.30;63.00
57282;DHT22;43129;52.628;10.098;2023-07-13T10:07:11;23.20;61.70
57282;DHT22;43129;52.628;10.098;2023-07-13T10:09:39;23.40;60.50
57282;DHT22;43129;52.628;10.098;2023-07-13T10:12:15;22.90;61.80
57282;DHT22;43129;52.628;10.098;2023-07-13T10:14:42;22.40;64.20
57282;DHT22;43129;52.628;10.098;2023-07-13T10:17:12;22.00;66.70
57282;DHT22;43129;52.628;10.098;2023-07-13T10:19:43;21.70;68.30
57282;DHT22;43129;52.628;10.098;2023-07-13T10:24:41;23.40;63.70
57282;DHT22;43129;52.628;10.098;2023-07-13T10:27:19;24.50;58.40
57282;DHT22;43129;52.628;10.098;2023-07-13T10:29:57;25.60;53.70
57282;DHT22;43129;52.628;10.098;2023-07-13T10:32:24;25.20;52.80
57282;DHT22;43129;52.628;10.098;2023-07-13T10:34:51;24.20;55.50
57282;DHT22;43129;52.628;10.098;2023-07-13T10:37:27;23.60;57.30
57282;DHT22;43129;52.628;10.098;2023-07-13T10:39:56;22.90;59.20
57282;DHT22;43129;52.628;10.098;2023-07-13T10:42:32;22.70;60.60
57282;DHT22;43129;52.628;10.098;2023-07-13T10:45:01;22.80;60.60
57282;DHT22;43129;52.628;10.098;2023-07-13T10:47:27;23.70;57.50
57282;DHT22;43129;52.628;10.098;2023-07-13T10:50:00;25.00;54.20
57282;DHT22;43129;52.628;10.098;2023-07-13T10:52:48;25.10;52.10
57282;DHT22;43129;52.628;10.098;2023-07-13T10:55:41;25.00;51.90
57282;DHT22;43129;52.628;10.098;2023-07-13T11:03:22;23.20;57.40
57282;DHT22;43129;52.628;10.098;2023-07-13T11:05:50;23.80;56.90
57282;DHT22;43129;52.628;10.098;2023-07-13T11:08:32;24.70;52.60
57282;DHT22;43129;52.628;10.098;2023-07-13T11:10:59;25.60;51.00
57282;DHT22;43129;52.628;10.098;2023-07-13T11:18:50;25.80;48.30
57282;DHT22;43129;52.628;10.098;2023-07-13T11:21:25;25.50;48.20
57282;DHT22;43129;52.628;10.098;2023-07-13T11:23:54;24.80;47.90
57282;DHT22;43129;52.628;10.098;2023-07-13T11:31:51;24.80;50.00
57282;DHT22;43129;52.628;10.098;2023-07-13T11:34:26;25.80;48.30
57282;DHT22;43129;52.628;10.098;2023-07-13T11:36:53;26.40;46.30
57282;DHT22;43129;52.628;10.098;2023-07-13T11:41:51;26.90;44.80
57282;DHT22;43129;52.628;10.098;2023-07-13T11:44:22;26.70;43.90
57282;DHT22;43129;52.628;10.098;2023-07-13T11:46:51;26.60;43.00
57282;DHT22;43129;52.628;10.098;2023-07-13T11:49:20;26.60;44.00
57282;DHT22;43129;52.628;10.098;2023-07-13T11:51:46;25.90;45.40
57282;DHT22;43129;52.628;10.098;2023-07-13T11:54:32;25.60;46.10
57282;DHT22;43129;52.628;10.098;2023-07-13T11:59:44;24.80;49.50
57282;DHT22;43129;52.628;10.098;2023-07-13T12:02:37;24.70;49.00
57282;DHT22;43129;52.628;10.098;2023-07-13T12:05:05;24.50;50.20
57282;DHT22;43129;52.628;10.098;2023-07-13T12:07:35;25.20;47.40
57282;DHT22;43129;52.628;10.098;2023-07-13T12:12:52;27.00;43.00
57282;DHT22;43129;52.628;10.098;2023-07-13T12:15:18;26.90;42.30
57282;DHT22;43129;52.628;10.098;2023-07-13T12:17:47;26.80;42.40
57282;DHT22;43129;52.628;10.098;2023-07-13T12:20:25;26.30;43.60
57282;DHT22;43129;52.628;10.098;2023-07-13T12:22:53;26.10;43.00
57282;DHT22;43129;52.628;10.098;2023-07-13T12:25:20;26.20;44.30
57282;DHT22;43129;52.628;10.098;2023-07-13T12:27:48;26.60;43.50
57282;DHT22;43129;52.628;10.098;2023-07-13T12:30:26;26.90;42.60
57282;DHT22;43129;52.628;10.098;2023-07-13T12:33:07;26.60;43.30
57282;DHT22;43129;52.628;10.098;2023-07-13T12:35:47;25.50;44.70
57282;DHT22;43129;52.628;10.098;2023-07-13T12:38:14;25.00;46.50
57282;DHT22;43129;52.628;10.098;2023-07-13T12:40:40;24.60;48.20
57282;DHT22;43129;52.628;10.098;2023-07-13T12:43:14;24.10;50.30
57282;DHT22;43129;52.628;10.098;2023-07-13T12:45:55;23.60;53.70
57282;DHT22;43129;52.628;10.098;2023-07-13T12:48:23;22.90;58.10
57282;DHT22;43129;52.628;10.098;2023-07-13T12:50:49;22.20;62.40
57282;DHT22;43129;52.628;10.098;2023-07-13T12:53:21;22.10;67.40
57282;DHT22;43129;52.628;10.098;2023-07-13T12:55:50;21.90;66.70
57282;DHT22;43129;52.628;10.098;2023-07-13T12:58:37;21.70;71.70
57282;DHT22;43129;52.628;10.098;2023-07-13T13:01:05;21.60;71.50
57282;DHT22;43129;52.628;10.098;2023-07-13T13:03:45;21.40;69.90
57282;DHT22;43129;52.628;10.098;2023-07-13T13:06:20;21.20;76.30
57282;DHT22;43129;52.628;10.098;2023-07-13T13:08:50;20.10;92.60
57282;DHT22;43129;52.628;10.098;2023-07-13T13:11:17;19.30;96.00
57282;DHT22;43129;52.628;10.098;2023-07-13T13:13:44;19.50;99.90
57282;DHT22;43129;52.628;10.098;2023-07-13T13:16:34;20.50;99.90
57282;DHT22;43129;52.628;10.098;2023-07-13T13:19:25;21.50;99.90
57282;DHT22;43129;52.628;10.098;2023-07-13T13:21:52;21.30;99.80
57282;DHT22;43129;52.628;10.098;2023-07-13T13:24:24;20.70;99.90
57282;DHT22;43129;52.628;10.098;2023-07-13T13:26:54;20.30;99.90
57282;DHT22;43129;52.628;10.098;2023-07-13T13:29:23;19.60;99.90
57282;DHT22;43129;52.628;10.098;2023-07-13T13:31:53;19.10;99.90
57282;DHT22;43129;52.628;10.098;2023-07-13T13:34:19;17.90;99.90
57282;DHT22;43129;52.628;10.098;2023-07-13T13:36:47;16.90;99.90
57282;DHT22;43129;52.628;10.098;2023-07-13T13:41:44;16.50;99.90
57282;DHT22;43129;52.628;10.098;2023-07-13T13:44:10;16.40;99.90
57282;DHT22;43129;52.628;10.098;2023-07-13T13:46:36;16.20;99.90
57282;DHT22;43129;52.628;10.098;2023-07-13T13:49:02;16.40;99.90
57282;DHT22;43129;52.628;10.098;2023-07-13T13:51:28;16.60;99.90
57282;DHT22;43129;52.628;10.098;2023-07-13T13:53:59;16.70;99.90
57282;DHT22;43129;52.628;10.098;2023-07-13T13:56:29;16.70;99.90
57282;DHT22;43129;52.628;10.098;2023-07-13T13:58:55;16.70;99.90
57282;DHT22;43129;52.628;10.098;2023-07-13T14:01:22;17.00;99.90
57282;DHT22;43129;52.628;10.098;2023-07-13T14:03:50;17.20;99.90
57282;DHT22;43129;52.628;10.098;2023-07-13T14:06:19;17.30;99.90
57282;DHT22;43129;52.628;10.098;2023-07-13T14:08:46;17.50;99.90
57282;DHT22;43129;52.628;10.098;2023-07-13T14:11:17;17.50;99.90
57282;DHT22;43129;52.628;10.098;2023-07-13T14:13:47;17.50;99.90
57282;DHT22;43129;52.628;10.098;2023-07-13T14:16:20;17.40;99.90
57282;DHT22;43129;52.628;10.098;2023-07-13T14:18:47;17.60;99.90
57282;DHT22;43129;52.628;10.098;2023-07-13T14:21:19;17.70;99.90
57282;DHT22;43129;52.628;10.098;2023-07-13T14:23:46;18.00;99.90
57282;DHT22;43129;52.628;10.098;2023-07-13T14:26:21;17.90;99.90
57282;DHT22;43129;52.628;10.098;2023-07-13T14:28:50;17.90;99.90
57282;DHT22;43129;52.628;10.098;2023-07-13T14:31:17;18.20;99.90
57282;DHT22;43129;52.628;10.098;2023-07-13T14:33:46;18.20;99.90
57282;DHT22;43129;52.628;10.098;2023-07-13T14:38:48;18.60;99.90
57282;DHT22;43129;52.628;10.098;2023-07-13T14:41:15;19.00;99.90
57282;DHT22;43129;52.628;10.098;2023-07-13T14:43:40;19.20;99.90
57282;DHT22;43129;52.628;10.098;2023-07-13T14:46:51;18.80;99.90
57282;DHT22;43129;52.628;10.098;2023-07-13T14:51:55;18.40;99.90
57282;DHT22;43129;52.628;10.098;2023-07-13T14:54:23;18.00;99.90
57282;DHT22;43129;52.628;10.098;2023-07-13T14:56:51;17.70;99.90
57282;DHT22;43129;52.628;10.098;2023-07-13T14:59:17;17.40;99.90
57282;DHT22;43129;52.628;10.098;2023-07-13T15:01:45;17.20;99.90
57282;DHT22;43129;52.628;10.098;2023-07-13T15:04:14;17.10;99.90
57282;DHT22;43129;52.628;10.098;2023-07-13T15:06:54;17.10;99.90
57282;DHT22;43129;52.628;10.098;2023-07-13T15:09:23;17.10;99.90
57282;DHT22;43129;52.628;10.098;2023-07-13T15:11:54;17.10;99.90
57282;DHT22;43129;52.628;10.098;2023-07-13T15:14:20;17.10;99.90
57282;DHT22;43129;52.628;10.098;2023-07-13T15:16:49;17.10;99.90
57282;DHT22;43129;52.628;10.098;2023-07-13T15:19:21;16.90;99.90
57282;DHT22;43129;52.628;10.098;2023-07-13T15:21:49;16.80;99.90
57282;DHT22;43129;52.628;10.098;2023-07-13T15:24:15;16.80;99.90
57282;DHT22;43129;52.628;10.098;2023-07-13T15:26:45;16.80;99.90
57282;DHT22;43129;52.628;10.098;2023-07-13T15:29:12;16.80;99.90
57282;DHT22;43129;52.628;10.098;2023-07-13T15:31:40;16.80;99.90
57282;DHT22;43129;52.628;10.098;2023-07-13T15:34:14;16.80;99.90
57282;DHT22;43129;52.628;10.098;2023-07-13T15:36:40;16.80;99.90
57282;DHT22;43129;52.628;10.098;2023-07-13T15:39:06;16.70;99.90
57282;DHT22;43129;52.628;10.098;2023-07-13T15:41:35;16.70;99.90
57282;DHT22;43129;52.628;10.098;2023-07-13T15:44:07;16.70;99.90
57282;DHT22;43129;52.628;10.098;2023-07-13T15:46:45;16.70;99.90
57282;DHT22;43129;52.628;10.098;2023-07-13T15:49:10;16.70;99.90
57282;DHT22;43129;52.628;10.098;2023-07-13T15:51:36;16.70;99.90
57282;DHT22;43129;52.628;10.098;2023-07-13T15:54:05;16.60;99.90
57282;DHT22;43129;52.628;10.098;2023-07-13T15:56:37;16.70;99.90
57282;DHT22;43129;52.628;10.098;2023-07-13T15:59:07;16.90;99.90
57282;DHT22;43129;52.628;10.098;2023-07-13T16:01:36;17.10;99.90
57282;DHT22;43129;52.628;10.098;2023-07-13T16:04:02;17.20;99.90
57282;DHT22;43129;52.628;10.098;2023-07-13T16:06:39;17.20;99.90
57282;DHT22;43129;52.628;10.098;2023-07-13T16:09:13;17.60;99.90
57282;DHT22;43129;52.628;10.098;2023-07-13T16:11:42;17.80;99.90
57282;DHT22;43129;52.628;10.098;2023-07-13T16:14:12;18.30;99.90